MDPP

Gregorio Luperon International Airport

Puerto Plata, Dominican Republic
TAF MDPP 211000Z 2112/2212 00000KT 9999 FEW016 BECMG 2113/2115 09010KT
Issued Valid From Valid To
Jan-21 @ 10:00 UTC
(6 hours ago)
Jan-21 @ 12:00 UTC
(4 hours ago)
Jan-22 @ 12:00 UTC
(in 20 hours)
Expired Click to View Jan-21 @ 12:00 to Jan-21 @ 13:00
TAF MDPP 211000Z 2112/2212 00000KT 9999 FEW016
Visibility Clouds
10,000+ meters
  • Few at 1,600' AGL
Becoming Jan-21 @ 13:00 to Jan-22 @ 12:00
BECMG 2113/2115 09010KT
Wind Visibility Clouds
90° at 10 knots 10,000+ meters
  • Few at 1,600' AGL
TAF MDPP 211000Z 2112/2212 00000KT 9999 FEW016 BECMG 2113/2115 09010KT
Issued Jan-21 @ 10:00 UTC
(6 hours ago)
Valid From Jan-21 @ 12:00 UTC
(4 hours ago)
Valid To Jan-22 @ 12:00 UTC
(in 20 hours)
Jan-21 @ 12:00 - Jan-21 @ 13:00
Clouds
  • Few at 1,600' AGL
Becoming Jan-21 @ 13:00 - Jan-22 @ 12:00
Wind Visibility
90° at 10 knots 10,000+ meters
Clouds
  • Few at 1,600' AGL